Time;durP1;ratioP1;P1;durP2;ratioP2;P2;SDS_P1;SDS_P2;PMS_P1;PMS_P2;Temp;Humidity;BMP_temperature;BMP_pressure;BME280_temperature;BME280_humidity;BME280_pressure;Samples;Min_cycle;Max_cycle;Signal;HPM_P1;HPM_P2
2023/03/25 00:01:24;;;;;;;2.43;2.10;;;;;;;12.32;100.00;98561.25;6224668;23;20168;-83
2023/03/25 00:03:57;;;;;;;2.43;2.20;;;;;;;12.46;100.00;98567.00;6229058;23;20153;-82
2023/03/25 00:06:36;;;;;;;3.07;2.80;;;;;;;12.46;100.00;98555.47;6200497;23;20167;-83
2023/03/25 00:09:05;;;;;;;3.13;2.83;;;;;;;12.46;100.00;98571.59;6222207;23;20177;-80
2023/03/25 00:11:32;;;;;;;3.00;2.70;;;;;;;12.44;100.00;98579.09;6219461;23;20160;-81
2023/03/25 00:14:00;;;;;;;2.50;2.30;;;;;;;12.48;100.00;98574.81;6222149;23;20159;-80
2023/03/25 00:16:27;;;;;;;1.43;1.30;;;;;;;12.44;100.00;98565.66;6191300;23;20175;-79
2023/03/25 00:18:54;;;;;;;1.13;1.03;;;;;;;12.50;100.00;98576.19;6222477;23;20514;-80
2023/03/25 00:21:22;;;;;;;1.23;0.90;;;;;;;12.47;100.00;98560.56;6220145;23;20199;-79
2023/03/25 00:23:49;;;;;;;1.70;0.63;;;;;;;12.52;100.00;98567.84;6220029;23;20172;-80
2023/03/25 00:26:16;;;;;;;0.73;0.57;;;;;;;12.54;100.00;98557.66;6220635;23;20606;-80
2023/03/25 00:28:43;;;;;;;0.47;0.47;;;;;;;12.61;100.00;98552.88;6220269;23;20485;-79
2023/03/25 00:31:12;;;;;;;0.50;0.40;;;;;;;12.56;100.00;98550.16;6194338;23;20219;-80
2023/03/25 00:33:42;;;;;;;0.87;0.50;;;;;;;12.57;100.00;98555.28;6220333;23;20184;-80
2023/03/25 00:36:13;;;;;;;0.53;0.40;;;;;;;12.57;100.00;98554.47;6219881;23;20148;-80
2023/03/25 00:38:42;;;;;;;0.40;0.40;;;;;;;12.51;100.00;98569.72;6218405;23;20161;-79
2023/03/25 00:41:16;;;;;;;0.57;0.50;;;;;;;12.59;100.00;98581.91;6193756;23;20188;-79
2023/03/25 00:43:44;;;;;;;0.63;0.40;;;;;;;12.54;100.00;98576.47;6218876;23;20148;-80
2023/03/25 00:46:11;;;;;;;0.50;0.50;;;;;;;12.55;100.00;98580.78;6218338;23;20910;-80
2023/03/25 00:48:38;;;;;;;0.43;0.40;;;;;;;12.55;100.00;98562.75;6219911;23;20231;-80
2023/03/25 00:51:08;;;;;;;0.67;0.50;;;;;;;12.52;100.00;98554.41;6221137;23;20203;-80
2023/03/25 00:53:38;;;;;;;0.30;0.30;;;;;;;12.49;100.00;98555.75;6195868;23;20173;-80
2023/03/25 00:56:06;;;;;;;1.03;0.43;;;;;;;12.49;100.00;98545.00;6220156;23;20241;-80
2023/03/25 00:58:34;;;;;;;1.40;0.50;;;;;;;12.61;100.00;98547.50;6221445;23;20163;-79
2023/03/25 01:01:09;;;;;;;0.67;0.53;;;;;;;12.48;100.00;98545.25;6220648;23;20169;-80
2023/03/25 01:03:36;;;;;;;0.43;0.40;;;;;;;12.50;100.00;98543.94;6194906;23;20174;-80
2023/03/25 01:06:15;;;;;;;0.30;0.30;;;;;;;12.67;100.00;98552.66;6195286;23;20222;-80
2023/03/25 01:08:43;;;;;;;0.50;0.50;;;;;;;12.64;100.00;98558.56;6219748;23;20158;-80
2023/03/25 01:11:19;;;;;;;1.30;0.40;;;;;;;12.62;100.00;98560.69;6219723;23;20163;-79
2023/03/25 01:13:48;;;;;;;0.50;0.40;;;;;;;12.65;100.00;98562.84;6223879;23;20171;-81
2023/03/25 01:16:15;;;;;;;0.40;0.40;;;;;;;12.88;100.00;98556.25;6171087;23;20179;-80
2023/03/25 01:18:42;;;;;;;0.30;0.30;;;;;;;12.94;100.00;98551.72;6221408;23;20221;-81
2023/03/25 01:21:08;;;;;;;0.37;0.37;;;;;;;13.05;100.00;98545.34;6195223;23;20607;-81
2023/03/25 01:23:39;;;;;;;0.33;0.30;;;;;;;13.04;100.00;98560.66;6220067;23;20165;-80
2023/03/25 01:26:06;;;;;;;0.30;0.30;;;;;;;13.27;100.00;98553.25;6194023;23;20171;-80
2023/03/25 01:28:34;;;;;;;0.30;0.30;;;;;;;13.15;100.00;98554.31;6169699;23;20174;-81
2023/03/25 01:31:06;;;;;;;0.20;0.20;;;;;;;13.33;100.00;98562.97;6193333;23;20177;-79
2023/03/25 01:33:37;;;;;;;0.20;0.20;;;;;;;13.43;100.00;98563.84;6219836;23;20176;-81
2023/03/25 01:36:08;;;;;;;0.30;0.30;;;;;;;13.28;100.00;98566.47;6194232;23;20167;-80
2023/03/25 01:38:36;;;;;;;0.50;0.40;;;;;;;13.31;100.00;98563.22;6194956;23;20233;-81
2023/03/25 01:41:03;;;;;;;1.27;0.50;;;;;;;13.10;100.00;98575.75;6220516;23;20165;-80
2023/03/25 01:43:30;;;;;;;0.30;0.30;;;;;;;13.18;100.00;98569.09;6221031;23;20214;-80
2023/03/25 01:45:58;;;;;;;0.30;0.30;;;;;;;13.19;100.00;98595.75;6219963;23;20171;-80
2023/03/25 01:48:34;;;;;;;0.33;0.33;;;;;;;13.27;100.00;98590.91;6220492;23;20531;-81
2023/03/25 01:51:07;;;;;;;1.30;0.40;;;;;;;13.36;100.00;98586.66;6222125;23;20187;-81
2023/03/25 01:53:34;;;;;;;0.40;0.40;;;;;;;13.59;100.00;98603.16;6196187;23;20182;-80
2023/03/25 01:56:04;;;;;;;1.43;0.50;;;;;;;13.39;100.00;98594.22;6196781;23;20166;-80
2023/03/25 01:58:32;;;;;;;0.40;0.40;;;;;;;13.40;100.00;98610.09;6195466;23;20174;-81
2023/03/25 02:01:00;;;;;;;0.47;0.47;;;;;;;13.35;100.00;98598.47;6170052;23;20171;-81
2023/03/25 02:03:29;;;;;;;0.47;0.43;;;;;;;13.30;100.00;98599.28;6222209;23;20161;-81
2023/03/25 02:06:08;;;;;;;1.43;0.50;;;;;;;13.38;100.00;98597.97;6196608;23;20250;-83
2023/03/25 02:08:38;;;;;;;0.43;0.40;;;;;;;13.25;100.00;98598.47;6196351;23;20169;-80
2023/03/25 02:11:06;;;;;;;0.60;0.40;;;;;;;13.38;100.00;98608.75;6194107;23;20253;-82
2023/03/25 02:13:35;;;;;;;0.73;0.50;;;;;;;13.20;100.00;98601.94;6222452;23;20205;-82
2023/03/25 02:16:25;;;;;;;0.77;0.63;;;;;;;13.22;100.00;98607.84;6198083;23;20195;-82
2023/03/25 02:19:21;;;;;;;0.67;0.50;;;;;;;13.31;100.00;98610.84;6223926;23;20170;-82
2023/03/25 02:22:19;;;;;;;0.73;0.50;;;;;;;13.42;100.00;98599.88;6199878;23;20492;-81
2023/03/25 02:25:19;;;;;;;0.70;0.50;;;;;;;13.45;100.00;98593.97;6199702;23;20162;-82
2023/03/25 02:28:05;;;;;;;0.60;0.60;;;;;;;13.43;100.00;98592.63;6179022;23;20187;-82
2023/03/25 02:31:00;;;;;;;1.07;0.60;;;;;;;13.39;100.00;98603.06;6202227;23;20181;-81
2023/03/25 02:33:52;;;;;;;0.50;0.50;;;;;;;13.27;100.00;98591.72;6227529;23;20193;-82
2023/03/25 02:36:37;;;;;;;1.37;0.70;;;;;;;13.23;100.00;98604.09;6228709;23;20162;-82
2023/03/25 02:39:30;;;;;;;0.83;0.77;;;;;;;13.14;100.00;98594.91;6202583;23;20191;-82
2023/03/25 02:42:03;;;;;;;0.70;0.70;;;;;;;13.21;100.00;98596.28;6226866;23;20170;-81
2023/03/25 02:44:36;;;;;;;0.90;0.80;;;;;;;13.11;100.00;98604.28;6177262;23;20166;-82
2023/03/25 02:47:07;;;;;;;0.63;0.63;;;;;;;13.18;100.00;98602.19;6228259;23;20151;-82
2023/03/25 02:49:47;;;;;;;0.80;0.80;;;;;;;13.06;100.00;98604.25;6188708;23;20231;-81
2023/03/25 02:52:20;;;;;;;0.70;0.70;;;;;;;13.01;100.00;98601.53;6232227;23;20143;-82
2023/03/25 02:54:51;;;;;;;0.87;0.80;;;;;;;13.13;100.00;98604.03;6233583;23;20162;-81
2023/03/25 02:57:28;;;;;;;0.60;0.60;;;;;;;13.12;100.00;98597.84;6232215;23;20191;-82
2023/03/25 02:59:59;;;;;;;0.70;0.70;;;;;;;13.09;100.00;98602.91;6207318;23;20205;-82
2023/03/25 03:02:31;;;;;;;1.47;0.70;;;;;;;13.02;100.00;98603.13;6231041;23;20177;-82
2023/03/25 03:05:00;;;;;;;0.87;0.80;;;;;;;13.08;100.00;98603.97;6208391;23;20177;-82
2023/03/25 03:07:35;;;;;;;0.73;0.70;;;;;;;13.04;100.00;98603.69;6232401;23;20165;-82
2023/03/25 03:10:25;;;;;;;0.90;0.70;;;;;;;12.92;100.00;98595.03;6208078;23;20180;-82
2023/03/25 03:13:15;;;;;;;1.27;0.70;;;;;;;12.88;100.00;98601.19;6255559;23;20211;-82
2023/03/25 03:16:03;;;;;;;3.03;0.83;;;;;;;12.74;100.00;98600.78;6231368;23;20161;-82
2023/03/25 03:19:05;;;;;;;0.80;0.80;;;;;;;12.75;100.00;98610.47;6231070;23;20252;-81
2023/03/25 03:21:37;;;;;;;1.27;1.00;;;;;;;12.72;100.00;98609.13;6204120;23;20157;-82
2023/03/25 03:24:15;;;;;;;0.80;0.80;;;;;;;12.79;100.00;98609.69;6229176;23;20226;-81
2023/03/25 03:26:45;;;;;;;1.00;0.90;;;;;;;12.73;100.00;98600.00;6256925;23;20157;-81
2023/03/25 03:29:49;;;;;;;0.87;0.87;;;;;;;12.60;100.00;98608.47;6255080;23;20634;-81
2023/03/25 03:32:27;;;;;;;1.23;1.10;;;;;;;12.69;100.00;98620.38;6227778;23;20224;-81
2023/03/25 03:35:22;;;;;;;0.90;0.90;;;;;;;12.73;100.00;98620.69;6232445;23;20181;-82
2023/03/25 03:38:10;;;;;;;1.20;1.10;;;;;;;12.71;100.00;98620.13;6230645;23;20191;-82
2023/03/25 03:40:40;;;;;;;1.20;1.07;;;;;;;12.74;100.00;98625.78;6227165;23;20148;-81
2023/03/25 03:43:12;;;;;;;1.17;0.90;;;;;;;12.68;100.00;98624.16;6227808;23;20536;-81
2023/03/25 03:45:45;;;;;;;1.20;1.10;;;;;;;12.72;100.00;98624.44;6252545;23;20169;-81
2023/03/25 03:48:26;;;;;;;2.17;1.03;;;;;;;12.65;100.00;98613.09;6254605;23;20153;-81
2023/03/25 03:50:56;;;;;;;1.47;1.10;;;;;;;12.69;100.00;98622.28;6227828;23;20197;-80
2023/03/25 03:53:29;;;;;;;1.27;1.00;;;;;;;12.76;100.00;98622.84;6200889;23;20219;-80
2023/03/25 03:56:12;;;;;;;1.37;1.20;;;;;;;12.76;100.00;98614.78;6252908;23;20150;-80
2023/03/25 03:58:42;;;;;;;1.53;1.30;;;;;;;12.70;100.00;98613.13;6227474;23;20197;-80
2023/03/25 04:01:16;;;;;;;1.20;1.10;;;;;;;12.52;100.00;98614.34;6226794;23;20188;-81
2023/03/25 04:03:49;;;;;;;1.23;1.13;;;;;;;12.58;100.00;98617.88;6252561;23;20145;-81
2023/03/25 04:06:23;;;;;;;1.73;1.33;;;;;;;12.55;100.00;98621.09;6252800;23;20184;-80
2023/03/25 04:08:57;;;;;;;1.87;1.10;;;;;;;12.47;100.00;98613.47;6225638;23;20179;-80
2023/03/25 04:11:30;;;;;;;1.47;1.37;;;;;;;12.32;100.00;98619.53;6225777;23;20145;-81
2023/03/25 04:13:58;;;;;;;1.50;1.20;;;;;;;12.44;100.00;98617.50;6225875;23;20192;-82
2023/03/25 04:16:25;;;;;;;1.30;1.17;;;;;;;12.45;100.00;98616.44;6251137;23;20204;-82
2023/03/25 04:18:52;;;;;;;1.30;1.20;;;;;;;12.44;100.00;98616.69;6225933;23;20161;-81
2023/03/25 04:21:20;;;;;;;2.03;1.27;;;;;;;12.43;100.00;98628.50;6251037;23;20159;-81
2023/03/25 04:23:48;;;;;;;1.97;1.20;;;;;;;12.51;100.00;98622.66;6252787;23;20169;-80
2023/03/25 04:26:15;;;;;;;1.50;1.40;;;;;;;12.46;100.00;98625.31;6252700;23;20244;-81
2023/03/25 04:28:45;;;;;;;1.00;0.90;;;;;;;12.33;100.00;98635.41;6253621;23;20161;-81
2023/03/25 04:31:17;;;;;;;1.13;1.00;;;;;;;12.36;100.00;98626.81;6252256;23;20157;-81
2023/03/25 04:33:47;;;;;;;1.70;1.20;;;;;;;12.30;100.00;98633.22;6252329;23;20688;-80
2023/03/25 04:36:14;;;;;;;1.53;1.03;;;;;;;12.22;100.00;98616.78;6226906;23;20145;-80
2023/03/25 04:38:44;;;;;;;1.00;1.00;;;;;;;12.18;100.00;98624.50;6251637;23;20161;-80
2023/03/25 04:41:12;;;;;;;1.00;0.93;;;;;;;12.25;100.00;98613.56;6250988;23;20180;-80
2023/03/25 04:43:44;;;;;;;1.10;1.00;;;;;;;12.30;100.00;98625.19;6226539;23;20219;-81
2023/03/25 04:46:15;;;;;;;0.93;0.90;;;;;;;12.40;100.00;98629.81;6226507;23;20169;-80
2023/03/25 04:48:44;;;;;;;1.07;0.87;;;;;;;12.38;100.00;98641.88;6226397;23;20157;-80
2023/03/25 04:51:11;;;;;;;0.97;0.80;;;;;;;12.26;100.00;98653.59;6172592;23;20201;-81
2023/03/25 04:53:39;;;;;;;0.93;0.70;;;;;;;12.43;100.00;98650.78;6170516;23;20186;-81
2023/03/25 04:56:11;;;;;;;1.63;0.80;;;;;;;12.24;100.00;98653.03;6221201;23;20163;-80
2023/03/25 04:58:39;;;;;;;1.57;0.80;;;;;;;12.34;100.00;98649.63;6196817;23;20160;-80
2023/03/25 05:01:10;;;;;;;1.23;1.00;;;;;;;12.42;100.00;98654.53;6195217;23;20166;-80
2023/03/25 05:03:38;;;;;;;0.90;0.80;;;;;;;12.40;100.00;98661.25;6196814;23;20145;-82
2023/03/25 05:06:06;;;;;;;1.10;0.70;;;;;;;12.32;100.00;98657.94;6221398;23;20193;-80
2023/03/25 05:08:34;;;;;;;1.23;0.80;;;;;;;12.36;100.00;98659.06;6221755;23;20162;-80
2023/03/25 05:11:02;;;;;;;0.63;0.63;;;;;;;12.51;100.00;98657.56;6221707;23;20174;-80
2023/03/25 05:13:28;;;;;;;1.13;0.83;;;;;;;12.48;100.00;98660.78;6221022;23;20205;-80
2023/03/25 05:15:55;;;;;;;1.00;0.60;;;;;;;12.43;100.00;98666.09;6220045;23;20181;-80
2023/03/25 05:18:22;;;;;;;1.00;0.70;;;;;;;12.35;100.00;98676.25;6221287;23;20157;-80
2023/03/25 05:20:49;;;;;;;1.77;0.90;;;;;;;12.52;100.00;98678.81;6220614;23;20189;-81
2023/03/25 05:23:18;;;;;;;2.47;1.10;;;;;;;12.44;100.00;98681.97;6220988;23;20244;-81
2023/03/25 05:25:46;;;;;;;2.27;0.87;;;;;;;12.61;100.00;98684.53;6194889;23;20165;-80
2023/03/25 05:28:13;;;;;;;0.97;0.70;;;;;;;12.49;100.00;98675.84;6221176;23;20721;-80
2023/03/25 05:30:44;;;;;;;1.63;1.00;;;;;;;12.46;100.00;98685.19;6194884;23;20169;-80
2023/03/25 05:33:16;;;;;;;1.70;0.80;;;;;;;12.46;100.00;98674.44;6192948;23;20184;-80
2023/03/25 05:35:44;;;;;;;1.20;0.77;;;;;;;12.53;100.00;98677.75;6218998;23;20586;-81
2023/03/25 05:38:17;;;;;;;1.70;0.80;;;;;;;12.51;100.00;98676.38;6193324;23;20206;-81
2023/03/25 05:40:45;;;;;;;1.60;0.90;;;;;;;12.58;100.00;98687.75;6219925;23;20145;-80
2023/03/25 05:43:14;;;;;;;1.50;0.70;;;;;;;12.68;100.00;98677.09;6192756;23;20165;-80
2023/03/25 05:45:41;;;;;;;1.93;0.70;;;;;;;12.92;100.00;98664.91;6220094;23;20154;-80
2023/03/25 05:48:08;;;;;;;1.93;0.80;;;;;;;13.06;100.00;98679.53;6193550;23;20166;-80
2023/03/25 05:50:37;;;;;;;1.67;0.87;;;;;;;13.06;99.54;98679.53;6219493;23;20190;-80
2023/03/25 05:53:04;;;;;;;1.63;0.70;;;;;;;13.30;98.37;98687.25;6193629;23;20173;-80
2023/03/25 05:55:31;;;;;;;0.73;0.70;;;;;;;13.43;97.82;98682.22;6218044;23;20158;-81
2023/03/25 05:58:04;;;;;;;3.30;0.90;;;;;;;13.55;96.45;98680.13;6219861;23;20154;-80
2023/03/25 06:00:31;;;;;;;1.47;0.70;;;;;;;13.83;95.47;98694.25;6219517;23;20213;-80
2023/03/25 06:02:58;;;;;;;2.80;0.90;;;;;;;13.91;93.87;98689.16;6193950;23;20221;-80
2023/03/25 06:05:28;;;;;;;1.27;0.70;;;;;;;13.82;94.20;98698.81;6219600;23;20233;-81
2023/03/25 06:07:56;;;;;;;1.60;0.80;;;;;;;13.83;93.77;98702.31;6219559;23;20180;-80
2023/03/25 06:10:23;;;;;;;2.90;1.00;;;;;;;13.77;94.50;98704.16;6217818;23;20161;-81
2023/03/25 06:12:52;;;;;;;2.43;0.90;;;;;;;13.77;94.73;98706.88;6219896;23;20158;-81
2023/03/25 06:15:43;;;;;;;2.00;0.80;;;;;;;13.84;92.29;98704.75;6219531;23;20177;-80
2023/03/25 06:18:11;;;;;;;1.67;0.87;;;;;;;13.75;92.46;98710.91;6218079;23;20234;-79
2023/03/25 06:20:38;;;;;;;1.87;0.83;;;;;;;13.77;90.69;98712.25;6218369;23;20203;-79
2023/03/25 06:23:05;;;;;;;1.40;0.70;;;;;;;13.79;91.03;98714.69;6192484;23;20163;-80
2023/03/25 06:25:32;;;;;;;1.40;0.87;;;;;;;13.79;91.86;98720.06;6218993;23;20246;-80
2023/03/25 06:28:02;;;;;;;1.83;0.70;;;;;;;13.83;91.11;98726.56;6219126;23;20167;-79
2023/03/25 06:30:29;;;;;;;2.13;0.80;;;;;;;13.67;91.01;98722.97;6218509;23;20640;-81
2023/03/25 06:32:58;;;;;;;1.27;0.60;;;;;;;13.75;90.48;98718.97;6218719;23;20188;-80
2023/03/25 06:35:24;;;;;;;1.87;0.90;;;;;;;13.86;89.70;98728.72;6191778;23;20678;-81
2023/03/25 06:37:53;;;;;;;2.23;0.77;;;;;;;13.93;89.22;98715.84;6192361;23;20190;-80
2023/03/25 06:40:31;;;;;;;1.23;0.77;;;;;;;13.84;88.48;98744.31;6193181;23;20484;-80
2023/03/25 06:43:00;;;;;;;0.93;0.80;;;;;;;14.09;88.40;98739.84;6217261;23;20167;-80
2023/03/25 06:45:33;;;;;;;1.57;0.80;;;;;;;14.20;86.48;98723.72;6219238;23;20162;-80
2023/03/25 06:48:28;;;;;;;2.10;0.83;;;;;;;14.16;86.10;98725.34;6215836;23;20529;-80
2023/03/25 06:50:55;;;;;;;1.27;0.77;;;;;;;14.35;84.65;98729.16;6218952;23;20202;-80
2023/03/25 06:53:22;;;;;;;1.67;0.60;;;;;;;14.34;84.65;98722.97;6219152;23;20188;-80
2023/03/25 06:55:51;;;;;;;1.43;0.90;;;;;;;14.17;83.25;98718.88;6168082;23;20174;-79
2023/03/25 06:58:18;;;;;;;1.10;0.60;;;;;;;14.09;84.01;98715.59;6218723;23;20241;-79
2023/03/25 07:00:45;;;;;;;2.20;0.70;;;;;;;14.11;83.30;98712.66;6218880;23;20217;-80
2023/03/25 07:03:11;;;;;;;2.87;0.77;;;;;;;14.16;83.22;98707.28;6218557;23;20159;-80
2023/03/25 07:05:40;;;;;;;1.77;0.70;;;;;;;14.22;83.16;98708.13;6218823;23;20239;-81
2023/03/25 07:08:08;;;;;;;2.03;0.80;;;;;;;14.28;83.35;98702.47;6219450;23;20163;-80
2023/03/25 07:10:36;;;;;;;3.07;0.77;;;;;;;14.15;82.31;98692.19;6192762;23;20195;-79
2023/03/25 07:13:46;;;;;;;0.67;0.57;;;;;;;14.25;81.26;98684.16;6222723;23;20170;-84
2023/03/25 07:16:57;;;;;;;1.87;0.60;;;;;;;14.39;80.22;98679.09;6220681;23;20178;-86
2023/03/25 08:50:54;;;;;;;2.93;0.67;;;;;;;14.95;67.06;98702.31;6281663;22;20216;-85
2023/03/25 08:53:23;;;;;;;1.90;0.70;;;;;;;14.95;67.13;98702.31;6271570;22;20177;-80
2023/03/25 08:55:53;;;;;;;3.57;0.90;;;;;;;15.24;67.62;98715.25;6270951;22;20153;-86
2023/03/25 08:58:26;;;;;;;2.63;0.50;;;;;;;15.35;66.61;98714.16;6247504;22;20161;-85
2023/03/25 10:16:36;;;;;;;2.20;0.60;;;;;;;17.14;55.90;98690.28;6280720;22;20214;-83
2023/03/25 10:32:24;;;;;;;1.43;0.40;;;;;;;16.84;54.72;98714.91;6181575;23;20251;-85
2023/03/25 10:35:50;;;;;;;3.77;0.53;;;;;;;16.99;54.08;98724.75;6155034;23;20191;-83
2023/03/25 10:38:38;;;;;;;1.47;0.50;;;;;;;16.77;54.47;98738.72;6176355;23;20170;-83
2023/03/25 10:41:38;;;;;;;0.80;0.40;;;;;;;16.87;54.98;98748.69;6144202;23;20189;-83
2023/03/25 10:44:32;;;;;;;1.07;0.60;;;;;;;16.72;55.10;98744.19;6135804;23;20222;-83
2023/03/25 10:47:45;;;;;;;1.00;0.50;;;;;;;16.29;53.97;98745.75;6165301;23;20201;-84
2023/03/25 10:51:25;;;;;;;1.83;0.40;;;;;;;16.35;53.85;98758.16;6154260;23;20154;-85
2023/03/25 10:55:52;;;;;;;0.90;0.33;;;;;;;16.33;52.26;98763.00;5980567;24;20266;-84
2023/03/25 11:02:21;;;;;;;1.07;0.43;;;;;;;16.37;52.18;98790.31;6263081;22;20230;-83
2023/03/25 11:09:31;;;;;;;0.50;0.40;;;;;;;16.84;51.18;98790.63;6270368;23;20276;-83
2023/03/25 11:16:00;;;;;;;1.47;0.50;;;;;;;16.97;51.57;98778.38;6269581;23;20197;-83
2023/03/25 11:19:55;;;;;;;0.90;0.40;;;;;;;17.04;49.64;98776.94;6242669;23;20215;-83
2023/03/25 13:10:12;;;;;;;0.57;0.40;;;;;;;19.47;38.89;98596.66;6209441;22;20203;-91
2023/03/25 13:28:02;;;;;;;0.50;0.40;;;;;;;19.75;36.32;98590.09;6267238;22;20200;-90
2023/03/25 15:02:20;;;;;;;0.80;0.30;;;;;;;17.10;41.74;98558.53;6284124;22;20204;-81
2023/03/25 15:05:03;;;;;;;0.87;0.30;;;;;;;17.12;41.22;98564.47;6248300;22;20175;-81
2023/03/25 15:07:55;;;;;;;0.23;0.20;;;;;;;17.29;40.93;98564.00;6254095;22;20160;-80
2023/03/25 15:10:29;;;;;;;0.40;0.30;;;;;;;17.16;40.78;98551.97;6287019;22;20593;-80
2023/03/25 15:13:10;;;;;;;1.40;0.37;;;;;;;17.30;41.14;98554.78;6287339;22;20152;-81
2023/03/25 15:15:49;;;;;;;0.87;0.37;;;;;;;17.68;41.70;98553.78;6240960;22;20193;-80
2023/03/25 15:18:34;;;;;;;0.67;0.40;;;;;;;17.89;41.41;98554.28;6235241;22;20613;-81
2023/03/25 15:21:09;;;;;;;0.70;0.30;;;;;;;18.18;41.29;98554.94;6262271;22;20247;-81
2023/03/25 15:24:06;;;;;;;0.30;0.30;;;;;;;18.43;40.85;98543.69;6264180;22;20224;-82
2023/03/25 15:26:43;;;;;;;0.43;0.30;;;;;;;18.33;40.92;98537.63;6242710;22;20165;-81
2023/03/25 15:29:47;;;;;;;0.50;0.30;;;;;;;18.10;40.67;98536.66;6234808;22;20247;-81
2023/03/25 15:32:51;;;;;;;0.77;0.27;;;;;;;18.02;41.00;98529.16;6264524;22;20161;-79
2023/03/25 15:35:58;;;;;;;0.30;0.30;;;;;;;17.75;42.10;98523.63;6287716;22;20187;-80
2023/03/25 15:39:09;;;;;;;0.40;0.30;;;;;;;17.46;41.14;98529.13;6196773;22;20168;-79
2023/03/25 15:41:51;;;;;;;0.60;0.40;;;;;;;17.21;42.32;98537.56;6256328;22;20175;-80
2023/03/25 15:44:41;;;;;;;1.63;0.40;;;;;;;16.96;42.54;98535.94;6259680;22;20159;-81
2023/03/25 15:47:23;;;;;;;1.00;0.50;;;;;;;16.82;43.03;98530.41;6260516;22;20224;-81
2023/03/25 15:50:08;;;;;;;0.90;0.60;;;;;;;16.66;43.62;98537.88;6208289;22;20165;-81
2023/03/25 15:53:06;;;;;;;0.87;0.30;;;;;;;16.36;43.08;98537.31;6283704;22;20152;-78
2023/03/25 15:55:45;;;;;;;1.17;0.40;;;;;;;16.25;43.51;98529.28;6292401;22;20219;-80
2023/03/25 15:58:40;;;;;;;2.67;0.40;;;;;;;16.04;43.75;98535.13;6293970;22;20153;-81
2023/03/25 16:01:38;;;;;;;0.90;0.40;;;;;;;16.01;44.18;98531.09;6259943;23;20200;-81
2023/03/25 16:08:30;;;;;;;0.50;0.30;;;;;;;15.67;43.02;98528.34;6253306;23;20165;-82
2023/03/25 16:11:30;;;;;;;0.20;0.20;;;;;;;15.53;43.29;98550.84;6263668;23;20145;-83
2023/03/25 16:14:34;;;;;;;0.63;0.30;;;;;;;15.39;44.29;98561.41;6272035;22;20184;-83
2023/03/25 16:17:42;;;;;;;0.30;0.27;;;;;;;15.36;46.08;98565.44;6272664;22;20156;-84
2023/03/25 16:20:33;;;;;;;0.30;0.30;;;;;;;15.31;47.18;98586.22;6269831;22;20159;-83
2023/03/25 16:23:28;;;;;;;0.20;0.20;;;;;;;15.56;47.89;98590.75;6272689;22;20189;-84
2023/03/25 16:26:17;;;;;;;0.30;0.30;;;;;;;15.36;50.19;98589.72;6248050;22;20171;-83
2023/03/25 16:33:45;;;;;;;0.23;0.20;;;;;;;14.24;54.69;98577.47;6295207;22;20171;-83
2023/03/25 16:40:48;;;;;;;0.20;0.20;;;;;;;13.72;56.26;98579.53;6302273;22;20148;-84
2023/03/25 16:43:53;;;;;;;0.23;0.20;;;;;;;13.65;56.43;98590.53;6302057;22;20150;-85
2023/03/25 16:46:45;;;;;;;1.93;0.30;;;;;;;13.58;56.68;98593.47;6282561;22;20156;-85
2023/03/25 16:49:51;;;;;;;0.87;0.40;;;;;;;13.35;57.78;98598.47;6249244;22;20222;-84
2023/03/25 17:18:56;;;;;;;0.30;0.30;;;;;;;11.28;95.21;98779.78;6267803;22;20196;-90
2023/03/25 17:21:30;;;;;;;1.13;0.30;;;;;;;10.63;100.00;98788.34;6242886;22;20168;-89
2023/03/25 17:24:36;;;;;;;0.27;0.20;;;;;;;10.17;100.00;98813.41;6261952;22;20618;-88
2023/03/25 17:27:06;;;;;;;0.30;0.20;;;;;;;9.77;100.00;98780.38;6184872;22;20164;-90
2023/03/25 17:29:49;;;;;;;0.33;0.20;;;;;;;9.74;100.00;98749.59;6238661;22;20172;-87
2023/03/25 17:32:17;;;;;;;0.40;0.30;;;;;;;9.63;100.00;98788.66;6239425;22;20168;-89
2023/03/25 17:35:13;;;;;;;0.30;0.20;;;;;;;9.62;100.00;98811.09;6212461;22;20220;-87
2023/03/25 17:37:41;;;;;;;1.50;0.30;;;;;;;9.47;100.00;98824.13;6260350;22;20168;-88
2023/03/25 17:40:10;;;;;;;0.77;0.40;;;;;;;9.40;100.00;98828.78;6211154;22;20168;-87
2023/03/25 17:42:39;;;;;;;0.30;0.20;;;;;;;9.35;100.00;98825.16;6233854;22;20227;-87
2023/03/25 17:45:12;;;;;;;0.20;0.20;;;;;;;9.40;100.00;98819.94;6206951;22;20221;-89
2023/03/25 17:47:39;;;;;;;0.43;0.33;;;;;;;9.38;100.00;98830.06;6203163;22;20165;-88
2023/03/25 17:50:24;;;;;;;1.13;0.53;;;;;;;9.41;100.00;98841.09;6204795;22;20175;-87
2023/03/25 17:52:51;;;;;;;1.70;0.30;;;;;;;9.42;100.00;98847.28;6229366;22;20262;-89
2023/03/25 17:55:18;;;;;;;0.50;0.37;;;;;;;9.49;100.00;98846.09;6198017;23;20212;-89
2023/03/25 17:57:45;;;;;;;0.47;0.30;;;;;;;9.51;100.00;98868.09;6228403;22;20168;-87
2023/03/25 18:00:17;;;;;;;0.70;0.20;;;;;;;9.51;100.00;98886.00;6203124;22;20164;-91
2023/03/25 18:02:47;;;;;;;0.90;0.43;;;;;;;9.52;100.00;98888.41;6228251;22;20164;-88
2023/03/25 18:05:14;;;;;;;0.60;0.40;;;;;;;9.66;100.00;98876.44;6227561;22;20169;-88
2023/03/25 18:07:41;;;;;;;2.20;0.40;;;;;;;9.70;100.00;98879.50;6203828;22;20176;-89
2023/03/25 18:10:13;;;;;;;0.73;0.50;;;;;;;9.62;100.00;98882.50;6229218;22;20176;-87
2023/03/25 18:12:40;;;;;;;1.30;0.50;;;;;;;9.61;100.00;98870.97;6206739;22;20175;-88
2023/03/25 18:15:08;;;;;;;0.63;0.40;;;;;;;9.59;100.00;98861.56;6203991;22;20189;-87
2023/03/25 18:17:35;;;;;;;1.60;0.50;;;;;;;9.48;100.00;98862.38;6203779;22;20223;-88
2023/03/25 18:20:11;;;;;;;0.90;0.60;;;;;;;9.39;100.00;98848.53;6202280;22;20204;-87
2023/03/25 18:22:38;;;;;;;1.00;0.47;;;;;;;9.40;100.00;98860.03;6228158;22;20160;-89
2023/03/25 18:25:05;;;;;;;0.80;0.30;;;;;;;9.40;100.00;98866.19;6232566;22;20175;-87
2023/03/25 18:27:32;;;;;;;0.30;0.30;;;;;;;9.32;100.00;98852.38;6257751;22;20167;-88
2023/03/25 18:30:23;;;;;;;0.67;0.40;;;;;;;9.31;100.00;98832.00;6236470;22;20171;-87
2023/03/25 18:32:50;;;;;;;0.67;0.37;;;;;;;9.27;100.00;98835.16;6232045;22;20243;-89
2023/03/25 18:35:18;;;;;;;0.40;0.40;;;;;;;9.31;100.00;98827.50;6231913;22;20183;-88
2023/03/25 18:37:47;;;;;;;1.13;0.50;;;;;;;9.34;100.00;98836.88;6232142;22;20171;-88
2023/03/25 18:40:16;;;;;;;0.97;0.47;;;;;;;9.35;100.00;98843.88;6232767;22;20254;-87
2023/03/25 18:42:43;;;;;;;0.63;0.40;;;;;;;9.40;100.00;98852.03;6232380;22;20175;-88
2023/03/25 18:45:11;;;;;;;0.30;0.30;;;;;;;9.37;100.00;98841.78;6232518;22;20171;-87
2023/03/25 18:47:37;;;;;;;1.03;0.40;;;;;;;9.30;100.00;98855.25;6258080;22;20171;-88
2023/03/25 18:50:31;;;;;;;0.50;0.30;;;;;;;9.17;100.00;98855.47;6232449;22;20172;-88
2023/03/25 18:52:59;;;;;;;0.30;0.30;;;;;;;9.17;100.00;98852.78;6258775;22;20242;-88
2023/03/25 18:55:28;;;;;;;0.30;0.30;;;;;;;9.13;100.00;98849.78;6232331;22;20195;-87
2023/03/25 18:57:56;;;;;;;0.67;0.30;;;;;;;9.05;100.00;98835.94;6233655;22;20168;-87
2023/03/25 19:00:29;;;;;;;0.73;0.53;;;;;;;9.10;100.00;98828.84;6232744;22;20590;-88
2023/03/25 19:02:57;;;;;;;0.43;0.43;;;;;;;9.14;100.00;98838.03;6233195;22;20162;-87
2023/03/25 19:05:24;;;;;;;1.67;0.70;;;;;;;9.13;100.00;98840.94;6258535;22;20199;-86
2023/03/25 19:07:52;;;;;;;0.40;0.40;;;;;;;9.10;100.00;98844.88;6236664;22;20507;-88
2023/03/25 19:10:27;;;;;;;0.30;0.30;;;;;;;8.97;100.00;98831.72;6237045;22;20164;-87
2023/03/25 19:12:55;;;;;;;0.50;0.47;;;;;;;8.87;100.00;98830.63;6236434;22;20204;-87
2023/03/25 19:15:25;;;;;;;1.20;0.30;;;;;;;8.97;100.00;98831.72;6236410;22;20191;-87
2023/03/25 19:17:53;;;;;;;0.50;0.30;;;;;;;9.03;100.00;98841.50;6238140;22;20171;-87
2023/03/25 19:20:23;;;;;;;0.40;0.40;;;;;;;9.11;100.00;98851.03;6263678;22;20227;-88
2023/03/25 19:22:50;;;;;;;0.30;0.30;;;;;;;9.13;100.00;98856.97;6267576;22;20226;-88
2023/03/25 19:25:18;;;;;;;0.80;0.40;;;;;;;9.07;100.00;98855.22;6242968;22;20167;-89
2023/03/25 19:27:45;;;;;;;0.90;0.40;;;;;;;9.11;100.00;98853.69;6243555;22;20167;-87
2023/03/25 19:30:18;;;;;;;0.30;0.30;;;;;;;9.03;100.00;98854.03;6242693;22;20167;-88
2023/03/25 19:32:50;;;;;;;0.50;0.50;;;;;;;9.09;100.00;98850.47;6270981;22;20221;-88
2023/03/25 19:35:18;;;;;;;0.40;0.40;;;;;;;8.95;100.00;98865.06;6269442;22;20186;-88
2023/03/25 19:37:54;;;;;;;0.53;0.40;;;;;;;8.97;100.00;98868.28;6289036;22;20170;-89